createdAt,value
2023-02-12T00:01:16.543Z,99689.16
2023-02-12T00:03:46.122Z,99684.16
2023-02-12T00:06:16.012Z,99675.34
2023-02-12T00:08:50.487Z,99679.56
2023-02-12T00:11:20.088Z,99679.63
2023-02-12T00:13:46.908Z,99675.59
2023-02-12T00:16:19.376Z,99677.31
2023-02-12T00:18:46.634Z,99663.13
2023-02-12T00:21:17.295Z,99664.09
2023-02-12T00:23:46.581Z,99659.09
2023-02-12T00:26:18.539Z,99660.56
2023-02-12T00:28:47.808Z,99662.47
2023-02-12T00:31:28.132Z,99672.69
2023-02-12T00:33:55.053Z,99648.53
2023-02-12T00:36:24.891Z,99647.44
2023-02-12T00:38:54.309Z,99665.63
2023-02-12T00:41:21.968Z,99650.28
2023-02-12T00:43:49.083Z,99667.84
2023-02-12T00:46:15.923Z,99661.44
2023-02-12T00:48:42.549Z,99679.66
2023-02-12T00:51:09.535Z,99680.31
2023-02-12T00:53:36.145Z,99662.44
2023-02-12T00:56:03.185Z,99675.09
2023-02-12T00:58:29.627Z,99676.09
2023-02-12T01:00:56.626Z,99666.41
2023-02-12T01:03:23.329Z,99686.31
2023-02-12T01:05:50.036Z,99676.78
2023-02-12T01:08:19.228Z,99663.94
2023-02-12T01:10:59.300Z,99668.38
2023-02-12T01:13:27.078Z,99660.47
2023-02-12T01:16:18.272Z,99659.84
2023-02-12T01:18:49.349Z,99674.09
2023-02-12T01:21:24.562Z,99663.63
2023-02-12T01:23:51.336Z,99665.06
2023-02-12T01:26:20.010Z,99646.34
2023-02-12T01:28:52.941Z,99657.72
2023-02-12T01:31:27.936Z,99665.03
2023-02-12T01:33:56.880Z,99656.53
2023-02-12T01:36:24.654Z,99625.13
2023-02-12T01:38:51.555Z,99641.94
2023-02-12T01:41:26.501Z,99659.53
2023-02-12T01:44:14.165Z,99643.16
2023-02-12T01:46:42.025Z,99650.28
2023-02-12T01:49:36.232Z,99650.66
2023-02-12T01:52:05.364Z,99653.25
2023-02-12T01:54:35.169Z,99656.28
2023-02-12T01:57:04.802Z,99651.44
2023-02-12T01:59:32.468Z,99651.56
2023-02-12T02:01:59.052Z,99636.06
2023-02-12T02:04:29.715Z,99647.50
2023-02-12T02:07:01.247Z,99654.16
2023-02-12T02:09:30.154Z,99658.34
2023-02-12T02:12:15.111Z,99636.81
2023-02-12T02:14:42.175Z,99652.28
2023-02-12T02:17:21.151Z,99659.47
2023-02-12T02:20:12.456Z,99658.47
2023-02-12T02:22:54.035Z,99656.06
2023-02-12T02:25:51.264Z,99651.78
2023-02-12T02:28:42.604Z,99662.56
2023-02-12T02:31:23.550Z,99662.31
2023-02-12T02:34:12.383Z,99658.03
2023-02-12T02:37:00.549Z,99654.88
2023-02-12T02:39:30.694Z,99660.81
2023-02-12T02:42:22.946Z,99653.97
2023-02-12T02:45:12.538Z,99653.00
2023-02-12T02:47:58.329Z,99650.00
2023-02-12T02:50:30.488Z,99648.44
2023-02-12T02:53:02.668Z,99654.75
2023-02-12T02:55:36.915Z,99634.00
2023-02-12T02:58:13.515Z,99658.69
2023-02-12T03:01:06.977Z,99657.06
2023-02-12T03:03:39.988Z,99656.31
2023-02-12T03:06:13.004Z,99659.03
2023-02-12T03:08:46.364Z,99648.84
2023-02-12T03:11:19.659Z,99655.75
2023-02-12T03:13:55.882Z,99646.44
2023-02-12T03:16:27.727Z,99653.31
2023-02-12T03:19:12.016Z,99658.19
2023-02-12T03:21:49.049Z,99653.44
2023-02-12T03:24:25.420Z,99644.91
2023-02-12T03:26:58.078Z,99655.75
2023-02-12T03:29:27.498Z,99636.63
2023-02-12T03:32:17.458Z,99647.94
2023-02-12T03:35:02.030Z,99643.22
2023-02-12T03:37:40.600Z,99636.88
2023-02-12T03:40:19.296Z,99644.03
2023-02-12T03:42:57.488Z,99624.50
2023-02-12T03:45:50.291Z,99615.66
2023-02-12T03:48:36.546Z,99626.25
2023-02-12T03:51:41.583Z,99641.00
2023-02-12T03:54:10.646Z,99643.00
2023-02-12T03:56:52.773Z,99619.66
2023-02-12T03:59:21.113Z,99628.38
2023-02-12T04:01:49.555Z,99638.63
2023-02-12T04:04:17.237Z,99620.31
2023-02-12T04:06:45.198Z,99624.75
2023-02-12T04:09:13.266Z,99635.59
2023-02-12T04:12:04.346Z,99638.94
2023-02-12T04:14:52.949Z,99640.22
2023-02-12T04:17:36.500Z,99640.69
2023-02-12T04:20:24.212Z,99645.91
2023-02-12T04:23:09.535Z,99646.75
2023-02-12T04:25:49.104Z,99649.34
2023-02-12T04:28:23.952Z,99649.84
2023-02-12T04:31:00.399Z,99645.91
2023-02-12T04:33:37.577Z,99648.19
2023-02-12T04:36:13.625Z,99633.03
2023-02-12T04:39:17.351Z,99645.31
2023-02-12T04:41:43.833Z,99631.19
2023-02-12T04:44:15.369Z,99615.66
2023-02-12T04:46:41.820Z,99630.19
2023-02-12T04:49:14.119Z,99635.31
2023-02-12T04:51:40.626Z,99639.88
2023-02-12T04:54:10.185Z,99631.41
2023-02-12T04:56:36.708Z,99639.22
2023-02-12T04:59:03.570Z,99644.34
2023-02-12T05:01:31.551Z,99645.28
2023-02-12T05:04:01.521Z,99651.41
2023-02-12T05:06:31.915Z,99651.41
2023-02-12T05:09:03.362Z,99649.78
2023-02-12T05:11:30.266Z,99636.25
2023-02-12T05:13:57.032Z,99640.72
2023-02-12T05:16:24.649Z,99643.44
2023-02-12T05:18:51.179Z,99636.22
2023-02-12T05:21:17.942Z,99642.72
2023-02-12T05:23:44.508Z,99641.97
2023-02-12T05:26:14.959Z,99649.78
2023-02-12T05:28:41.776Z,99637.06
2023-02-12T05:31:10.907Z,99625.97
2023-02-12T05:33:37.443Z,99651.03
2023-02-12T05:36:10.402Z,99643.63
2023-02-12T05:38:36.962Z,99637.84
2023-02-12T05:41:09.244Z,99644.06
2023-02-12T05:43:36.343Z,99639.47
2023-02-12T05:46:04.931Z,99638.06
2023-02-12T05:48:34.915Z,99660.31
2023-02-12T05:51:23.221Z,99656.03
2023-02-12T05:53:52.315Z,99653.84
2023-02-12T05:56:22.318Z,99646.25
2023-02-12T05:58:53.929Z,99657.69
2023-02-12T06:01:24.356Z,99659.38
2023-02-12T06:03:51.153Z,99663.53
2023-02-12T06:06:17.732Z,99644.50
2023-02-12T06:08:44.314Z,99651.66
2023-02-12T06:11:13.856Z,99658.16
2023-02-12T06:13:40.366Z,99654.31
2023-02-12T06:16:07.550Z,99644.75
2023-02-12T06:18:36.897Z,99662.72
2023-02-12T06:21:04.255Z,99657.53
2023-02-12T06:23:33.480Z,99643.25
2023-02-12T06:26:02.657Z,99652.09
2023-02-12T06:28:29.243Z,99641.16
2023-02-12T06:30:55.998Z,99638.56
2023-02-12T06:33:22.447Z,99621.59
2023-02-12T06:35:48.957Z,99640.84
2023-02-12T06:38:15.476Z,99627.72
2023-02-12T06:40:42.080Z,99644.41
2023-02-12T06:43:08.786Z,99625.94
2023-02-12T06:45:35.586Z,99584.97
2023-02-12T06:48:02.095Z,99633.59
2023-02-12T06:50:30.999Z,99645.63
2023-02-12T06:53:01.233Z,99624.88
2023-02-12T06:55:27.714Z,99618.22
2023-02-12T06:57:54.278Z,99649.59
2023-02-12T07:00:21.485Z,99642.03
2023-02-12T07:02:53.536Z,99640.34
2023-02-12T07:05:20.401Z,99650.69
2023-02-12T07:07:46.954Z,99660.41
2023-02-12T07:10:13.461Z,99637.56
2023-02-12T07:12:40.013Z,99630.28
2023-02-12T07:15:06.951Z,99655.69
2023-02-12T07:17:33.476Z,99650.25
2023-02-12T07:20:02.982Z,99658.69
2023-02-12T07:22:30.897Z,99650.00
2023-02-12T07:24:57.394Z,99628.31
2023-02-12T07:27:23.914Z,99658.53
2023-02-12T07:29:50.477Z,99659.16
2023-02-12T07:32:17.091Z,99642.69
2023-02-12T07:34:43.642Z,99655.34
2023-02-12T07:37:10.072Z,99653.19
2023-02-12T07:39:36.510Z,99654.63
2023-02-12T07:42:02.961Z,99644.56
2023-02-12T07:44:32.453Z,99644.56
2023-02-12T07:47:01.142Z,99610.84
2023-02-12T07:49:27.708Z,99637.34
2023-02-12T07:51:56.805Z,99623.88
2023-02-12T07:54:23.434Z,99625.34
2023-02-12T07:56:50.897Z,99612.31
2023-02-12T07:59:18.820Z,99613.50
2023-02-12T08:01:52.962Z,99594.88
2023-02-12T08:04:22.335Z,99594.38
2023-02-12T08:06:51.417Z,99614.91
2023-02-12T08:09:21.810Z,99615.22
2023-02-12T08:11:48.362Z,99587.31
2023-02-12T08:14:17.711Z,99584.06
2023-02-12T08:16:45.294Z,99615.75
2023-02-12T08:19:19.457Z,99607.75
2023-02-12T08:21:49.705Z,99634.72
2023-02-12T08:24:16.299Z,99616.91
2023-02-12T08:26:42.938Z,99639.69
2023-02-12T08:29:12.331Z,99624.69
2023-02-12T08:31:42.948Z,99634.44
2023-02-12T08:34:21.711Z,99629.50
2023-02-12T08:36:50.709Z,99628.16
2023-02-12T08:39:18.941Z,99633.69
2023-02-12T08:41:46.328Z,99628.16
2023-02-12T08:44:13.959Z,99637.53
2023-02-12T08:46:46.120Z,99625.22
2023-02-12T08:49:16.837Z,99598.38
2023-02-12T08:51:48.661Z,99631.13
2023-02-12T08:54:19.306Z,99607.78
2023-02-12T08:56:46.404Z,99595.31
2023-02-12T08:59:15.303Z,99612.44
2023-02-12T09:01:42.820Z,99615.47
2023-02-12T09:04:18.466Z,99626.69
2023-02-12T09:06:46.016Z,99628.94
2023-02-12T09:09:12.737Z,99625.56
2023-02-12T09:11:39.428Z,99627.47
2023-02-12T09:14:09.146Z,99613.44
2023-02-12T09:16:37.118Z,99627.88
2023-02-12T09:19:04.416Z,99632.41
2023-02-12T09:21:30.965Z,99627.81
2023-02-12T09:23:57.478Z,99620.78
2023-02-12T09:26:28.168Z,99620.25
2023-02-12T09:28:55.349Z,99622.50
2023-02-12T09:31:27.978Z,99619.94
2023-02-12T09:34:00.518Z,99622.75
2023-02-12T09:36:27.717Z,99621.78
2023-02-12T09:38:54.421Z,99598.91
2023-02-12T09:41:42.643Z,99603.31
2023-02-12T09:44:12.039Z,99608.16
2023-02-12T09:46:44.519Z,99610.72
2023-02-12T09:49:19.130Z,99592.19
2023-02-12T09:51:51.588Z,99595.91
2023-02-12T09:54:20.840Z,99590.09
2023-02-12T09:56:57.227Z,99601.16
2023-02-12T09:59:45.006Z,99581.38
2023-02-12T10:02:16.438Z,99589.47
2023-02-12T10:04:59.811Z,99595.22
2023-02-12T10:07:45.772Z,99585.41
2023-02-12T10:10:18.279Z,99591.38
2023-02-12T10:13:31.120Z,99591.72
2023-02-12T10:16:17.015Z,99568.41
2023-02-12T10:19:14.296Z,99580.72
2023-02-12T10:21:56.096Z,99593.25
2023-02-12T10:24:49.261Z,99590.91
2023-02-12T10:27:18.803Z,99594.38
2023-02-12T10:29:47.293Z,99585.63
2023-02-12T10:32:22.935Z,99594.44
2023-02-12T10:34:51.459Z,99587.31
2023-02-12T10:37:40.221Z,99593.09
2023-02-12T10:40:17.972Z,99578.84
2023-02-12T10:42:49.775Z,99578.09
2023-02-12T10:45:21.542Z,99576.78
2023-02-12T10:47:53.139Z,99565.69
2023-02-12T10:50:48.790Z,99564.53
2023-02-12T10:53:45.633Z,99562.00
2023-02-12T10:56:14.870Z,99557.44
2023-02-12T10:58:50.202Z,99541.31
2023-02-12T11:01:18.109Z,99545.75
2023-02-12T11:03:44.615Z,99538.56
2023-02-12T11:06:17.404Z,99536.78
2023-02-12T11:08:44.851Z,99527.47
2023-02-12T11:11:26.218Z,99531.63
2023-02-12T11:14:06.590Z,99537.47
2023-02-12T11:16:36.884Z,99526.75
2023-02-12T11:19:06.314Z,99503.38
2023-02-12T11:21:34.598Z,99524.06
2023-02-12T11:24:32.115Z,99524.44
2023-02-12T11:27:16.718Z,99523.59
2023-02-12T11:29:44.661Z,99521.94
2023-02-12T11:32:19.385Z,99526.94
2023-02-12T11:35:13.358Z,99524.59
2023-02-12T11:37:42.202Z,99509.56
2023-02-12T11:40:36.378Z,99510.56
2023-02-12T11:43:06.343Z,99505.50
2023-02-12T11:45:38.030Z,99489.75
2023-02-12T11:48:23.232Z,99472.78
2023-02-12T11:50:53.986Z,99494.03
2023-02-12T11:53:25.993Z,99500.72
2023-02-12T11:56:05.331Z,99488.44
2023-02-12T11:58:35.159Z,99492.31
2023-02-12T12:01:17.008Z,99461.25
2023-02-12T12:03:55.737Z,99484.88
2023-02-12T12:06:22.183Z,99481.09
2023-02-12T12:08:56.084Z,99466.72
2023-02-12T12:11:33.403Z,99462.59
2023-02-12T12:14:26.014Z,99456.69
2023-02-12T12:17:33.522Z,99447.00
2023-02-12T12:20:11.302Z,99444.59
2023-02-12T12:23:15.416Z,99442.72
2023-02-12T12:26:17.200Z,99451.00
2023-02-12T12:28:51.367Z,99447.94
2023-02-12T12:31:25.725Z,99444.28
2023-02-12T12:34:04.170Z,99445.59
2023-02-12T12:36:51.923Z,99439.88
2023-02-12T12:39:44.406Z,99435.50
2023-02-12T12:42:48.357Z,99430.63
2023-02-12T12:45:40.129Z,99406.28
2023-02-12T12:48:17.941Z,99420.72
2023-02-12T12:51:30.316Z,99427.19
2023-02-12T12:54:05.491Z,99420.06
2023-02-12T12:57:00.665Z,99428.53
2023-02-12T12:59:31.073Z,99415.22
2023-02-12T13:02:03.797Z,99419.78
2023-02-12T13:04:42.620Z,99408.34
2023-02-12T13:07:37.705Z,99403.91
2023-02-12T13:10:35.148Z,99405.44
2023-02-12T13:13:41.725Z,99384.72
2023-02-12T13:16:33.767Z,99402.16
2023-02-12T13:19:16.689Z,99392.66
2023-02-12T13:22:12.795Z,99382.19
2023-02-12T13:24:49.797Z,99394.84
2023-02-12T13:27:24.656Z,99378.72
2023-02-12T13:30:21.926Z,99389.19
2023-02-12T13:33:01.542Z,99371.41
2023-02-12T13:35:31.096Z,99380.91
2023-02-12T13:38:01.432Z,99381.09
2023-02-12T13:40:32.654Z,99377.53
2023-02-12T13:43:23.974Z,99376.59
2023-02-12T13:46:12.549Z,99376.00
2023-02-12T13:48:50.954Z,99379.31
2023-02-12T13:51:36.142Z,99383.72
2023-02-12T13:55:02.073Z,99362.41
2023-02-12T13:57:28.556Z,99371.88
2023-02-12T13:59:58.135Z,99377.56
2023-02-12T14:02:42.683Z,99373.47
2023-02-12T14:05:25.253Z,99376.91
2023-02-12T14:07:55.414Z,99378.66
2023-02-12T14:10:34.297Z,99378.13
2023-02-12T14:13:22.762Z,99374.47
2023-02-12T14:15:55.658Z,99374.19
2023-02-12T14:18:36.856Z,99365.38
2023-02-12T14:21:09.152Z,99373.72
2023-02-12T14:23:35.808Z,99357.63
2023-02-12T14:26:04.163Z,99360.84
2023-02-12T14:28:52.205Z,99375.03
2023-02-12T14:31:18.894Z,99374.34
2023-02-12T14:34:05.710Z,99370.00
2023-02-12T14:36:34.847Z,99365.75
2023-02-12T14:39:19.410Z,99362.69
2023-02-12T14:42:08.300Z,99366.06
2023-02-12T14:45:07.337Z,99367.09
2023-02-12T14:47:39.785Z,99368.28
2023-02-12T14:50:21.434Z,99367.38
2023-02-12T14:52:53.315Z,99366.41
2023-02-12T14:55:24.248Z,99370.69
2023-02-12T14:57:55.116Z,99350.06
2023-02-12T15:00:28.134Z,99344.13
2023-02-12T15:02:54.644Z,99371.66
2023-02-12T15:05:28.318Z,99303.41
2023-02-12T15:08:00.515Z,99373.94
2023-02-12T15:10:39.245Z,99376.38
2023-02-12T15:13:24.536Z,99374.78
2023-02-12T15:15:58.047Z,99370.75
2023-02-12T15:18:27.558Z,99383.03
2023-02-12T15:21:02.616Z,99388.41
2023-02-12T15:23:45.822Z,99381.25
2023-02-12T15:26:16.839Z,99379.78
2023-02-12T15:28:47.194Z,99359.22
2023-02-12T15:31:18.158Z,99366.91
2023-02-12T15:33:48.414Z,99384.91
2023-02-12T15:36:24.282Z,99350.84
2023-02-12T15:38:57.555Z,99372.03
2023-02-12T15:41:33.188Z,99382.88
2023-02-12T15:44:25.640Z,99372.88
2023-02-12T15:46:58.315Z,99384.56
2023-02-12T15:49:35.044Z,99373.88
2023-02-12T15:52:07.256Z,99369.63
2023-02-12T15:54:36.881Z,99374.75
2023-02-12T15:57:10.396Z,99357.16
2023-02-12T15:59:37.047Z,99357.66
2023-02-12T16:02:17.240Z,99376.75
2023-02-12T16:04:44.886Z,99377.22
2023-02-12T16:07:13.307Z,99365.25
2023-02-12T16:09:41.743Z,99365.88
2023-02-12T16:12:14.564Z,99371.00
2023-02-12T16:14:53.890Z,99384.69
2023-02-12T16:17:20.283Z,99382.13
2023-02-12T16:19:59.662Z,99387.28
2023-02-12T16:22:36.185Z,99373.81
2023-02-12T16:25:05.297Z,99386.44
2023-02-12T16:27:35.162Z,99390.41
2023-02-12T16:30:22.738Z,99389.75
2023-02-12T16:32:49.640Z,99391.84
2023-02-12T16:35:16.006Z,99393.78
2023-02-12T16:37:51.201Z,99391.66
2023-02-12T16:40:21.811Z,99390.63
2023-02-12T16:42:48.198Z,99403.72
2023-02-12T16:45:26.948Z,99400.41
2023-02-12T16:48:09.093Z,99369.59
2023-02-12T16:50:45.968Z,99392.03
2023-02-12T16:53:43.562Z,99400.00
2023-02-12T16:56:18.379Z,99401.81
2023-02-12T16:58:46.940Z,99411.66
2023-02-12T17:01:22.317Z,99401.09
2023-02-12T17:03:50.606Z,99407.41
2023-02-12T17:06:22.864Z,99432.47
2023-02-12T17:08:49.520Z,99432.72
2023-02-12T17:11:17.757Z,99421.66
2023-02-12T17:13:45.927Z,99426.44
2023-02-12T17:16:18.875Z,99426.19
2023-02-12T17:18:55.116Z,99429.56
2023-02-12T17:21:25.913Z,99405.06
2023-02-12T17:23:54.249Z,99430.50
2023-02-12T17:26:22.071Z,99421.34
2023-02-12T17:28:48.924Z,99431.19
2023-02-12T17:31:15.575Z,99422.06
2023-02-12T17:33:42.074Z,99430.06
2023-02-12T17:36:09.070Z,99432.94
2023-02-12T17:38:37.950Z,99433.88
2023-02-12T17:41:10.944Z,99433.00
2023-02-12T17:43:37.624Z,99432.97
2023-02-12T17:46:18.610Z,99432.03
2023-02-12T17:48:45.192Z,99439.94
2023-02-12T17:51:11.996Z,99408.47
2023-02-12T17:53:39.950Z,99436.06
2023-02-12T17:56:14.294Z,99424.16
2023-02-12T17:58:42.300Z,99436.56
2023-02-12T18:01:11.475Z,99434.72
2023-02-12T18:03:41.108Z,99381.72
2023-02-12T18:06:08.722Z,99416.16
2023-02-12T18:08:35.467Z,99379.53
2023-02-12T18:11:10.156Z,99449.50
2023-02-12T18:13:37.962Z,99465.63
2023-02-12T18:16:09.486Z,99458.56
2023-02-12T18:18:37.398Z,99465.09
2023-02-12T18:21:08.866Z,99461.44
2023-02-12T18:23:35.562Z,99435.34
2023-02-12T18:26:09.867Z,99477.44
2023-02-12T18:28:46.922Z,99421.13
2023-02-12T18:31:14.342Z,99444.38
2023-02-12T18:33:52.331Z,99480.84
2023-02-12T18:36:20.246Z,99481.38
2023-02-12T18:38:49.988Z,99486.22
2023-02-12T18:41:19.940Z,99476.38
2023-02-12T18:43:47.055Z,99462.81
2023-02-12T18:46:17.043Z,99460.06
2023-02-12T18:48:43.944Z,99474.06
2023-02-12T18:51:14.573Z,99463.41
2023-02-12T18:53:41.207Z,99464.97
2023-02-12T18:56:12.763Z,99473.50
2023-02-12T18:58:42.257Z,99438.56
2023-02-12T19:01:59.618Z,99435.16
2023-02-12T19:04:27.935Z,99403.25
2023-02-12T19:07:17.113Z,99436.09
2023-02-12T19:09:57.036Z,99415.31
2023-02-12T19:12:27.917Z,99445.22
2023-02-12T19:18:16.652Z,99448.31
2023-02-12T19:20:43.594Z,99427.94
2023-02-12T19:23:10.364Z,99403.63
2023-02-12T19:25:42.881Z,99413.97
2023-02-12T19:28:11.032Z,99476.28
2023-02-12T19:30:40.691Z,99479.97
2023-02-12T19:33:08.333Z,99460.00
2023-02-12T19:35:37.213Z,99469.19
2023-02-12T19:38:03.718Z,99476.31
2023-02-12T19:40:30.327Z,99474.69
2023-02-12T19:42:56.763Z,99468.69
2023-02-12T19:45:23.286Z,99466.16
2023-02-12T19:47:52.285Z,99479.47
2023-02-12T19:50:18.843Z,99474.66
2023-02-12T19:52:45.423Z,99467.41
2023-02-12T19:55:11.898Z,99485.53
2023-02-12T19:57:38.556Z,99493.88
2023-02-12T20:00:07.211Z,99483.38
2023-02-12T20:02:38.188Z,99485.16
2023-02-12T20:05:25.784Z,99486.78
2023-02-12T20:07:52.243Z,99457.97
2023-02-12T20:10:20.193Z,99482.41
2023-02-12T20:12:46.722Z,99473.81
2023-02-12T20:15:13.195Z,99487.31
2023-02-12T20:17:39.724Z,99483.47
2023-02-12T20:20:43.363Z,99490.22
2023-02-12T20:24:24.012Z,99489.00
2023-02-12T20:26:50.725Z,99453.81
2023-02-12T20:29:17.272Z,99493.56
2023-02-12T20:31:45.158Z,99471.38
2023-02-12T20:34:14.801Z,99482.09
2023-02-12T20:36:45.633Z,99488.69
2023-02-12T20:39:14.789Z,99494.50
2023-02-12T20:41:42.337Z,99489.44
2023-02-12T20:44:13.005Z,99502.31
2023-02-12T20:46:41.770Z,99484.31
2023-02-12T20:49:10.683Z,99499.59
2023-02-12T20:51:40.425Z,99492.28
2023-02-12T20:54:10.586Z,99509.91
2023-02-12T20:56:39.822Z,99489.47
2023-02-12T20:59:10.467Z,99504.50
2023-02-12T21:01:41.559Z,99507.22
2023-02-12T21:04:15.328Z,99495.16
2023-02-12T21:06:42.046Z,99483.41
2023-02-12T21:09:10.396Z,99513.47
2023-02-12T21:11:42.137Z,99509.34
2023-02-12T21:14:21.922Z,99511.84
2023-02-12T21:16:49.918Z,99494.69
2023-02-12T21:19:18.103Z,99498.41
2023-02-12T21:21:45.501Z,99511.84
2023-02-12T21:24:15.440Z,99512.03
2023-02-12T21:26:41.934Z,99520.97
2023-02-12T21:29:11.455Z,99521.72
2023-02-12T21:31:43.859Z,99522.06
2023-02-12T21:34:17.532Z,99487.94
2023-02-12T21:36:46.208Z,99510.09
2023-02-12T21:39:16.551Z,99513.91
2023-02-12T21:41:43.657Z,99506.44
2023-02-12T21:44:15.728Z,99496.72
2023-02-12T21:46:43.048Z,99506.78
2023-02-12T21:49:14.412Z,99514.56
2023-02-12T21:51:45.067Z,99476.88
2023-02-12T21:54:17.555Z,99505.09
2023-02-12T21:56:45.630Z,99496.47
2023-02-12T21:59:12.866Z,99509.44
2023-02-12T22:01:43.337Z,99496.41
2023-02-12T22:04:13.967Z,99493.63
2023-02-12T22:06:45.974Z,99511.94
2023-02-12T22:09:14.783Z,99503.28
2023-02-12T22:11:42.961Z,99500.78
2023-02-12T22:14:15.024Z,99519.03
2023-02-12T22:16:42.618Z,99521.63
2023-02-12T22:19:12.381Z,99500.56
2023-02-12T22:21:44.539Z,99517.06
2023-02-12T22:24:15.979Z,99479.19
2023-02-12T22:26:45.141Z,99521.19
2023-02-12T22:29:15.486Z,99519.72
2023-02-12T22:31:45.195Z,99520.56
2023-02-12T22:34:17.391Z,99527.50
2023-02-12T22:36:45.026Z,99523.72
2023-02-12T22:39:15.496Z,99505.94
2023-02-12T22:41:45.444Z,99519.19
2023-02-12T22:44:15.985Z,99504.94
2023-02-12T22:46:45.660Z,99514.31
2023-02-12T22:49:14.322Z,99514.47
2023-02-12T22:51:40.819Z,99536.00
2023-02-12T22:54:14.375Z,99528.84
2023-02-12T22:56:44.276Z,99521.22
2023-02-12T22:59:16.040Z,99522.72
2023-02-12T23:01:44.521Z,99526.19
2023-02-12T23:04:15.742Z,99521.97
2023-02-12T23:06:45.718Z,99524.81
2023-02-12T23:09:19.146Z,99512.06
2023-02-12T23:11:46.410Z,99509.69
2023-02-12T23:14:15.439Z,99523.22
2023-02-12T23:16:41.990Z,99526.59
2023-02-12T23:19:10.302Z,99530.16
2023-02-12T23:21:36.805Z,99496.19
2023-02-12T23:24:03.410Z,99517.69
2023-02-12T23:26:30.394Z,99514.94
2023-02-12T23:28:57.717Z,99521.72
2023-02-12T23:31:25.045Z,99524.91
2023-02-12T23:33:51.602Z,99509.09
2023-02-12T23:36:18.237Z,99517.41
2023-02-12T23:38:48.697Z,99525.41
2023-02-12T23:41:18.773Z,99529.03
2023-02-12T23:43:48.286Z,99528.72
2023-02-12T23:46:16.906Z,99515.44
2023-02-12T23:48:46.598Z,99516.25
2023-02-12T23:51:13.138Z,99507.81
2023-02-12T23:53:39.643Z,99515.28
2023-02-12T23:56:07.004Z,99536.63
2023-02-12T23:58:33.453Z,99525.63
